sensor_id;sensor_type;location;lat;lon;timestamp;P1;durP1;ratioP1;P2;durP2;ratioP2
41456;SDS011;27197;51.752;5.220;2022-08-05T00:00:44;6.35;;;1.62;;
41456;SDS011;27197;51.752;5.220;2022-08-05T00:03:14;5.10;;;2.20;;
41456;SDS011;27197;51.752;5.220;2022-08-05T00:05:49;4.45;;;1.75;;
41456;SDS011;27197;51.752;5.220;2022-08-05T00:08:19;4.95;;;1.50;;
41456;SDS011;27197;51.752;5.220;2022-08-05T00:10:50;5.50;;;1.80;;
41456;SDS011;27197;51.752;5.220;2022-08-05T00:13:24;4.08;;;1.17;;
41456;SDS011;27197;51.752;5.220;2022-08-05T00:16:00;5.70;;;1.75;;
41456;SDS011;27197;51.752;5.220;2022-08-05T00:18:35;5.60;;;1.90;;
41456;SDS011;27197;51.752;5.220;2022-08-05T00:21:05;3.72;;;1.80;;
41456;SDS011;27197;51.752;5.220;2022-08-05T00:23:37;3.75;;;1.75;;
41456;SDS011;27197;51.752;5.220;2022-08-05T00:26:09;3.58;;;1.40;;
41456;SDS011;27197;51.752;5.220;2022-08-05T00:28:42;3.40;;;1.30;;
41456;SDS011;27197;51.752;5.220;2022-08-05T00:31:13;4.47;;;1.52;;
41456;SDS011;27197;51.752;5.220;2022-08-05T00:33:42;3.55;;;1.37;;
41456;SDS011;27197;51.752;5.220;2022-08-05T00:36:11;2.37;;;1.25;;
41456;SDS011;27197;51.752;5.220;2022-08-05T00:38:43;3.52;;;1.50;;
41456;SDS011;27197;51.752;5.220;2022-08-05T00:41:14;3.05;;;1.20;;
41456;SDS011;27197;51.752;5.220;2022-08-05T00:43:58;2.58;;;1.20;;
41456;SDS011;27197;51.752;5.220;2022-08-05T00:46:29;3.45;;;1.22;;
41456;SDS011;27197;51.752;5.220;2022-08-05T00:49:01;3.12;;;1.32;;
41456;SDS011;27197;51.752;5.220;2022-08-05T00:51:32;3.77;;;1.45;;
41456;SDS011;27197;51.752;5.220;2022-08-05T00:54:01;4.87;;;1.75;;
41456;SDS011;27197;51.752;5.220;2022-08-05T00:56:32;2.90;;;1.30;;
41456;SDS011;27197;51.752;5.220;2022-08-05T00:59:02;2.33;;;1.20;;
41456;SDS011;27197;51.752;5.220;2022-08-05T01:01:38;2.95;;;1.32;;
41456;SDS011;27197;51.752;5.220;2022-08-05T01:04:07;4.35;;;1.70;;
41456;SDS011;27197;51.752;5.220;2022-08-05T01:06:37;3.47;;;1.55;;
41456;SDS011;27197;51.752;5.220;2022-08-05T01:09:09;4.83;;;1.62;;
41456;SDS011;27197;51.752;5.220;2022-08-05T01:11:40;2.37;;;1.15;;
41456;SDS011;27197;51.752;5.220;2022-08-05T01:14:12;1.95;;;1.10;;
41456;SDS011;27197;51.752;5.220;2022-08-05T01:17:03;5.80;;;2.00;;
41456;SDS011;27197;51.752;5.220;2022-08-05T01:19:49;5.05;;;1.57;;
41456;SDS011;27197;51.752;5.220;2022-08-05T01:34:00;2.15;;;1.47;;
41456;SDS011;27197;51.752;5.220;2022-08-05T01:36:46;2.52;;;1.20;;
41456;SDS011;27197;51.752;5.220;2022-08-05T01:39:07;2.52;;;1.45;;
41456;SDS011;27197;51.752;5.220;2022-08-05T01:41:39;3.30;;;1.50;;
41456;SDS011;27197;51.752;5.220;2022-08-05T01:44:13;2.67;;;1.50;;
41456;SDS011;27197;51.752;5.220;2022-08-05T01:46:48;4.10;;;1.77;;
41456;SDS011;27197;51.752;5.220;2022-08-05T01:49:20;2.77;;;1.67;;
41456;SDS011;27197;51.752;5.220;2022-08-05T01:51:54;3.20;;;1.70;;
41456;SDS011;27197;51.752;5.220;2022-08-05T01:54:31;4.60;;;1.92;;
41456;SDS011;27197;51.752;5.220;2022-08-05T01:57:04;5.10;;;2.00;;
41456;SDS011;27197;51.752;5.220;2022-08-05T01:59:40;3.15;;;1.52;;
41456;SDS011;27197;51.752;5.220;2022-08-05T02:02:12;3.87;;;1.37;;
41456;SDS011;27197;51.752;5.220;2022-08-05T02:04:42;2.95;;;1.62;;
41456;SDS011;27197;51.752;5.220;2022-08-05T02:07:19;2.67;;;1.40;;
41456;SDS011;27197;51.752;5.220;2022-08-05T02:09:51;2.40;;;1.60;;
41456;SDS011;27197;51.752;5.220;2022-08-05T02:18:09;2.60;;;1.75;;
41456;SDS011;27197;51.752;5.220;2022-08-05T02:23:13;4.20;;;1.77;;
41456;SDS011;27197;51.752;5.220;2022-08-05T02:25:47;4.90;;;1.50;;
41456;SDS011;27197;51.752;5.220;2022-08-05T02:28:26;3.70;;;1.67;;
41456;SDS011;27197;51.752;5.220;2022-08-05T02:30:57;2.98;;;1.50;;
41456;SDS011;27197;51.752;5.220;2022-08-05T02:33:27;2.77;;;1.50;;
41456;SDS011;27197;51.752;5.220;2022-08-05T02:36:00;3.58;;;1.70;;
41456;SDS011;27197;51.752;5.220;2022-08-05T02:38:34;5.25;;;1.80;;
41456;SDS011;27197;51.752;5.220;2022-08-05T02:41:07;4.03;;;1.67;;
41456;SDS011;27197;51.752;5.220;2022-08-05T02:43:41;2.83;;;1.50;;
41456;SDS011;27197;51.752;5.220;2022-08-05T02:46:13;3.95;;;1.70;;
41456;SDS011;27197;51.752;5.220;2022-08-05T02:48:44;5.80;;;1.90;;
41456;SDS011;27197;51.752;5.220;2022-08-05T02:51:17;5.80;;;2.12;;
41456;SDS011;27197;51.752;5.220;2022-08-05T02:53:49;4.58;;;1.57;;
41456;SDS011;27197;51.752;5.220;2022-08-05T02:56:20;3.77;;;1.55;;
41456;SDS011;27197;51.752;5.220;2022-08-05T02:58:53;3.95;;;1.70;;
41456;SDS011;27197;51.752;5.220;2022-08-05T03:01:24;7.35;;;1.85;;
41456;SDS011;27197;51.752;5.220;2022-08-05T03:04:02;2.33;;;1.30;;
41456;SDS011;27197;51.752;5.220;2022-08-05T03:06:31;2.25;;;1.20;;
41456;SDS011;27197;51.752;5.220;2022-08-05T03:09:07;5.25;;;2.22;;
41456;SDS011;27197;51.752;5.220;2022-08-05T03:11:40;3.45;;;1.52;;
41456;SDS011;27197;51.752;5.220;2022-08-05T03:14:12;3.10;;;1.30;;
41456;SDS011;27197;51.752;5.220;2022-08-05T03:16:43;3.30;;;1.65;;
41456;SDS011;27197;51.752;5.220;2022-08-05T03:19:12;2.72;;;1.37;;
41456;SDS011;27197;51.752;5.220;2022-08-05T03:21:42;4.80;;;1.52;;
41456;SDS011;27197;51.752;5.220;2022-08-05T03:24:14;3.47;;;1.40;;
41456;SDS011;27197;51.752;5.220;2022-08-05T03:26:48;3.30;;;1.90;;
41456;SDS011;27197;51.752;5.220;2022-08-05T03:29:19;2.90;;;1.72;;
41456;SDS011;27197;51.752;5.220;2022-08-05T03:31:49;3.52;;;1.57;;
41456;SDS011;27197;51.752;5.220;2022-08-05T03:34:21;2.27;;;1.42;;
41456;SDS011;27197;51.752;5.220;2022-08-05T03:36:52;2.52;;;1.20;;
41456;SDS011;27197;51.752;5.220;2022-08-05T03:39:23;3.42;;;1.47;;
41456;SDS011;27197;51.752;5.220;2022-08-05T03:41:56;2.62;;;1.35;;
41456;SDS011;27197;51.752;5.220;2022-08-05T03:44:26;3.77;;;1.52;;
41456;SDS011;27197;51.752;5.220;2022-08-05T03:46:57;4.83;;;1.40;;
41456;SDS011;27197;51.752;5.220;2022-08-05T03:49:29;3.77;;;1.70;;
41456;SDS011;27197;51.752;5.220;2022-08-05T03:52:02;2.42;;;1.17;;
41456;SDS011;27197;51.752;5.220;2022-08-05T03:54:34;3.70;;;1.80;;
41456;SDS011;27197;51.752;5.220;2022-08-05T03:57:05;2.35;;;1.32;;
41456;SDS011;27197;51.752;5.220;2022-08-05T03:59:44;2.65;;;1.17;;
41456;SDS011;27197;51.752;5.220;2022-08-05T04:02:12;4.03;;;1.30;;
41456;SDS011;27197;51.752;5.220;2022-08-05T04:04:45;3.15;;;1.25;;
41456;SDS011;27197;51.752;5.220;2022-08-05T04:07:17;2.20;;;1.22;;
41456;SDS011;27197;51.752;5.220;2022-08-05T04:09:49;2.22;;;1.15;;
41456;SDS011;27197;51.752;5.220;2022-08-05T04:12:22;3.55;;;1.50;;
41456;SDS011;27197;51.752;5.220;2022-08-05T04:14:52;2.98;;;1.10;;
41456;SDS011;27197;51.752;5.220;2022-08-05T04:17:23;2.50;;;1.32;;
41456;SDS011;27197;51.752;5.220;2022-08-05T04:19:52;2.98;;;1.10;;
41456;SDS011;27197;51.752;5.220;2022-08-05T04:22:23;3.72;;;1.50;;
41456;SDS011;27197;51.752;5.220;2022-08-05T04:24:54;3.87;;;1.50;;
41456;SDS011;27197;51.752;5.220;2022-08-05T04:27:23;2.40;;;1.22;;
41456;SDS011;27197;51.752;5.220;2022-08-05T04:29:58;3.67;;;1.22;;
41456;SDS011;27197;51.752;5.220;2022-08-05T04:32:28;3.60;;;1.60;;
41456;SDS011;27197;51.752;5.220;2022-08-05T04:34:58;3.85;;;1.80;;
41456;SDS011;27197;51.752;5.220;2022-08-05T04:37:30;2.17;;;1.40;;
41456;SDS011;27197;51.752;5.220;2022-08-05T04:40:00;3.65;;;1.40;;
41456;SDS011;27197;51.752;5.220;2022-08-05T04:42:31;2.98;;;1.27;;
41456;SDS011;27197;51.752;5.220;2022-08-05T04:45:04;2.35;;;1.27;;
41456;SDS011;27197;51.752;5.220;2022-08-05T04:47:34;3.92;;;1.40;;
41456;SDS011;27197;51.752;5.220;2022-08-05T04:50:04;2.52;;;1.32;;
41456;SDS011;27197;51.752;5.220;2022-08-05T04:52:37;3.05;;;1.50;;
41456;SDS011;27197;51.752;5.220;2022-08-05T04:55:07;2.62;;;1.57;;
41456;SDS011;27197;51.752;5.220;2022-08-05T04:57:38;2.83;;;1.30;;
41456;SDS011;27197;51.752;5.220;2022-08-05T05:00:09;2.55;;;1.60;;
41456;SDS011;27197;51.752;5.220;2022-08-05T05:02:41;3.65;;;1.55;;
41456;SDS011;27197;51.752;5.220;2022-08-05T05:05:11;4.53;;;1.22;;
41456;SDS011;27197;51.752;5.220;2022-08-05T05:07:43;3.62;;;1.17;;
41456;SDS011;27197;51.752;5.220;2022-08-05T05:10:15;2.17;;;1.27;;
41456;SDS011;27197;51.752;5.220;2022-08-05T05:12:50;4.20;;;1.40;;
41456;SDS011;27197;51.752;5.220;2022-08-05T05:15:20;2.25;;;1.20;;
41456;SDS011;27197;51.752;5.220;2022-08-05T05:17:50;2.75;;;1.40;;
41456;SDS011;27197;51.752;5.220;2022-08-05T05:20:20;2.02;;;1.10;;
41456;SDS011;27197;51.752;5.220;2022-08-05T05:22:53;3.40;;;1.75;;
41456;SDS011;27197;51.752;5.220;2022-08-05T05:25:26;3.37;;;1.07;;
41456;SDS011;27197;51.752;5.220;2022-08-05T05:27:59;8.10;;;3.02;;
41456;SDS011;27197;51.752;5.220;2022-08-05T05:30:30;2.08;;;1.20;;
41456;SDS011;27197;51.752;5.220;2022-08-05T05:33:03;3.30;;;1.45;;
41456;SDS011;27197;51.752;5.220;2022-08-05T05:35:36;3.08;;;1.42;;
41456;SDS011;27197;51.752;5.220;2022-08-05T05:38:07;1.77;;;1.00;;
41456;SDS011;27197;51.752;5.220;2022-08-05T05:40:36;4.28;;;1.90;;
41456;SDS011;27197;51.752;5.220;2022-08-05T05:43:12;3.08;;;1.50;;
41456;SDS011;27197;51.752;5.220;2022-08-05T05:45:42;1.98;;;1.30;;
41456;SDS011;27197;51.752;5.220;2022-08-05T05:48:15;3.77;;;1.22;;
41456;SDS011;27197;51.752;5.220;2022-08-05T05:50:49;3.33;;;1.17;;
41456;SDS011;27197;51.752;5.220;2022-08-05T05:53:21;3.45;;;1.37;;
41456;SDS011;27197;51.752;5.220;2022-08-05T05:55:52;4.35;;;1.30;;
41456;SDS011;27197;51.752;5.220;2022-08-05T05:58:24;6.22;;;2.10;;
41456;SDS011;27197;51.752;5.220;2022-08-05T06:00:56;2.90;;;1.25;;
41456;SDS011;27197;51.752;5.220;2022-08-05T06:03:27;5.75;;;2.00;;
41456;SDS011;27197;51.752;5.220;2022-08-05T06:05:58;4.95;;;1.65;;
41456;SDS011;27197;51.752;5.220;2022-08-05T06:08:31;3.72;;;1.20;;
41456;SDS011;27197;51.752;5.220;2022-08-05T06:11:03;2.72;;;1.25;;
41456;SDS011;27197;51.752;5.220;2022-08-05T06:13:37;3.12;;;1.50;;
41456;SDS011;27197;51.752;5.220;2022-08-05T06:16:08;2.55;;;1.35;;
41456;SDS011;27197;51.752;5.220;2022-08-05T06:18:37;3.90;;;1.32;;
41456;SDS011;27197;51.752;5.220;2022-08-05T06:21:06;3.35;;;1.42;;
41456;SDS011;27197;51.752;5.220;2022-08-05T06:23:37;3.65;;;1.57;;
41456;SDS011;27197;51.752;5.220;2022-08-05T06:26:07;3.70;;;1.42;;
41456;SDS011;27197;51.752;5.220;2022-08-05T06:28:39;2.72;;;1.30;;
41456;SDS011;27197;51.752;5.220;2022-08-05T06:31:10;3.67;;;1.30;;
41456;SDS011;27197;51.752;5.220;2022-08-05T06:33:42;3.50;;;1.30;;
41456;SDS011;27197;51.752;5.220;2022-08-05T06:36:15;3.52;;;1.57;;
41456;SDS011;27197;51.752;5.220;2022-08-05T06:38:44;2.52;;;1.52;;
41456;SDS011;27197;51.752;5.220;2022-08-05T06:41:14;3.08;;;1.37;;
41456;SDS011;27197;51.752;5.220;2022-08-05T06:43:45;4.03;;;1.40;;
41456;SDS011;27197;51.752;5.220;2022-08-05T06:46:16;3.40;;;1.30;;
41456;SDS011;27197;51.752;5.220;2022-08-05T06:48:49;3.92;;;1.30;;
41456;SDS011;27197;51.752;5.220;2022-08-05T06:51:24;3.20;;;1.20;;
41456;SDS011;27197;51.752;5.220;2022-08-05T06:53:55;1.40;;;0.88;;
41456;SDS011;27197;51.752;5.220;2022-08-05T06:56:28;2.22;;;1.00;;
41456;SDS011;27197;51.752;5.220;2022-08-05T06:59:05;3.42;;;1.20;;
41456;SDS011;27197;51.752;5.220;2022-08-05T07:01:38;3.55;;;1.20;;
41456;SDS011;27197;51.752;5.220;2022-08-05T07:04:09;3.25;;;1.60;;
41456;SDS011;27197;51.752;5.220;2022-08-05T07:06:41;4.67;;;1.30;;
41456;SDS011;27197;51.752;5.220;2022-08-05T07:09:12;3.25;;;1.40;;
41456;SDS011;27197;51.752;5.220;2022-08-05T07:11:46;3.72;;;1.20;;
41456;SDS011;27197;51.752;5.220;2022-08-05T07:14:16;2.75;;;1.15;;
41456;SDS011;27197;51.752;5.220;2022-08-05T07:19:33;2.15;;;0.78;;
41456;SDS011;27197;51.752;5.220;2022-08-05T07:22:05;2.47;;;1.15;;
41456;SDS011;27197;51.752;5.220;2022-08-05T07:24:36;4.33;;;1.40;;
41456;SDS011;27197;51.752;5.220;2022-08-05T07:27:06;2.35;;;1.00;;
41456;SDS011;27197;51.752;5.220;2022-08-05T07:29:38;5.03;;;1.42;;
41456;SDS011;27197;51.752;5.220;2022-08-05T07:32:11;4.70;;;1.20;;
41456;SDS011;27197;51.752;5.220;2022-08-05T07:34:43;3.60;;;1.27;;
41456;SDS011;27197;51.752;5.220;2022-08-05T07:37:16;3.92;;;1.35;;
41456;SDS011;27197;51.752;5.220;2022-08-05T07:39:48;4.20;;;2.15;;
41456;SDS011;27197;51.752;5.220;2022-08-05T07:42:19;5.10;;;2.52;;
41456;SDS011;27197;51.752;5.220;2022-08-05T07:45:08;5.40;;;2.95;;
41456;SDS011;27197;51.752;5.220;2022-08-05T07:47:41;5.67;;;1.75;;
41456;SDS011;27197;51.752;5.220;2022-08-05T07:50:12;6.05;;;1.75;;
41456;SDS011;27197;51.752;5.220;2022-08-05T07:52:45;3.08;;;1.30;;
41456;SDS011;27197;51.752;5.220;2022-08-05T07:55:14;3.58;;;1.75;;
41456;SDS011;27197;51.752;5.220;2022-08-05T07:57:46;2.75;;;1.20;;
41456;SDS011;27197;51.752;5.220;2022-08-05T08:00:22;2.42;;;1.47;;
41456;SDS011;27197;51.752;5.220;2022-08-05T08:02:51;3.80;;;1.60;;
41456;SDS011;27197;51.752;5.220;2022-08-05T08:05:24;3.67;;;1.30;;
41456;SDS011;27197;51.752;5.220;2022-08-05T08:07:54;1.65;;;1.10;;
41456;SDS011;27197;51.752;5.220;2022-08-05T08:10:24;4.90;;;1.70;;
41456;SDS011;27197;51.752;5.220;2022-08-05T08:12:56;3.40;;;1.32;;
41456;SDS011;27197;51.752;5.220;2022-08-05T08:15:26;3.33;;;1.27;;
41456;SDS011;27197;51.752;5.220;2022-08-05T08:17:58;2.30;;;1.07;;
41456;SDS011;27197;51.752;5.220;2022-08-05T08:20:32;3.45;;;1.05;;
41456;SDS011;27197;51.752;5.220;2022-08-05T08:23:02;2.62;;;1.15;;
41456;SDS011;27197;51.752;5.220;2022-08-05T08:25:35;2.22;;;0.88;;
41456;SDS011;27197;51.752;5.220;2022-08-05T08:28:05;3.05;;;1.10;;
41456;SDS011;27197;51.752;5.220;2022-08-05T08:30:36;1.62;;;1.00;;
41456;SDS011;27197;51.752;5.220;2022-08-05T08:33:08;2.87;;;0.98;;
41456;SDS011;27197;51.752;5.220;2022-08-05T08:35:39;3.17;;;1.07;;
41456;SDS011;27197;51.752;5.220;2022-08-05T08:38:11;1.98;;;0.68;;
41456;SDS011;27197;51.752;5.220;2022-08-05T08:40:41;3.12;;;0.93;;
41456;SDS011;27197;51.752;5.220;2022-08-05T08:43:13;2.02;;;0.65;;
41456;SDS011;27197;51.752;5.220;2022-08-05T08:45:46;1.37;;;0.68;;
41456;SDS011;27197;51.752;5.220;2022-08-05T08:48:19;2.72;;;0.85;;
41456;SDS011;27197;51.752;5.220;2022-08-05T08:50:52;1.60;;;0.65;;
41456;SDS011;27197;51.752;5.220;2022-08-05T08:53:26;1.75;;;0.85;;
41456;SDS011;27197;51.752;5.220;2022-08-05T08:56:01;2.45;;;0.90;;
41456;SDS011;27197;51.752;5.220;2022-08-05T08:58:31;3.35;;;0.78;;
41456;SDS011;27197;51.752;5.220;2022-08-05T09:01:05;1.05;;;0.80;;
41456;SDS011;27197;51.752;5.220;2022-08-05T09:03:37;1.65;;;0.72;;
41456;SDS011;27197;51.752;5.220;2022-08-05T09:06:12;1.00;;;0.60;;
41456;SDS011;27197;51.752;5.220;2022-08-05T09:08:42;0.98;;;0.60;;
41456;SDS011;27197;51.752;5.220;2022-08-05T09:11:36;1.10;;;0.50;;
41456;SDS011;27197;51.752;5.220;2022-08-05T09:14:06;1.60;;;0.70;;
41456;SDS011;27197;51.752;5.220;2022-08-05T09:16:41;1.30;;;0.65;;
41456;SDS011;27197;51.752;5.220;2022-08-05T09:19:13;0.95;;;0.60;;
41456;SDS011;27197;51.752;5.220;2022-08-05T09:21:43;2.40;;;0.50;;
41456;SDS011;27197;51.752;5.220;2022-08-05T09:24:14;3.85;;;0.85;;
41456;SDS011;27197;51.752;5.220;2022-08-05T09:26:46;1.80;;;0.90;;
41456;SDS011;27197;51.752;5.220;2022-08-05T09:29:21;0.60;;;0.40;;
41456;SDS011;27197;51.752;5.220;2022-08-05T09:32:07;1.00;;;0.60;;
41456;SDS011;27197;51.752;5.220;2022-08-05T09:34:46;0.88;;;0.50;;
41456;SDS011;27197;51.752;5.220;2022-08-05T09:37:23;1.50;;;0.60;;
41456;SDS011;27197;51.752;5.220;2022-08-05T09:39:54;0.65;;;0.50;;
41456;SDS011;27197;51.752;5.220;2022-08-05T09:42:26;0.40;;;0.37;;
41456;SDS011;27197;51.752;5.220;2022-08-05T09:44:58;1.37;;;0.50;;
41456;SDS011;27197;51.752;5.220;2022-08-05T09:47:29;1.20;;;0.40;;
41456;SDS011;27197;51.752;5.220;2022-08-05T09:50:01;0.88;;;0.45;;
41456;SDS011;27197;51.752;5.220;2022-08-05T09:52:33;1.82;;;0.50;;
41456;SDS011;27197;51.752;5.220;2022-08-05T09:55:09;1.05;;;0.50;;
41456;SDS011;27197;51.752;5.220;2022-08-05T09:57:40;0.62;;;0.42;;
41456;SDS011;27197;51.752;5.220;2022-08-05T10:02:47;1.15;;;0.57;;
41456;SDS011;27197;51.752;5.220;2022-08-05T10:05:26;1.75;;;0.50;;
41456;SDS011;27197;51.752;5.220;2022-08-05T10:08:01;1.40;;;0.53;;
41456;SDS011;27197;51.752;5.220;2022-08-05T10:13:24;1.32;;;0.50;;
41456;SDS011;27197;51.752;5.220;2022-08-05T10:16:02;1.55;;;0.55;;
41456;SDS011;27197;51.752;5.220;2022-08-05T10:18:36;1.92;;;0.60;;
41456;SDS011;27197;51.752;5.220;2022-08-05T10:21:07;1.47;;;0.57;;
41456;SDS011;27197;51.752;5.220;2022-08-05T10:23:41;0.70;;;0.53;;
41456;SDS011;27197;51.752;5.220;2022-08-05T10:26:13;1.72;;;0.93;;
41456;SDS011;27197;51.752;5.220;2022-08-05T10:28:44;4.28;;;0.78;;
41456;SDS011;27197;51.752;5.220;2022-08-05T10:31:18;1.95;;;0.68;;
41456;SDS011;27197;51.752;5.220;2022-08-05T10:33:47;0.78;;;0.50;;
41456;SDS011;27197;51.752;5.220;2022-08-05T10:36:20;1.40;;;0.50;;
41456;SDS011;27197;51.752;5.220;2022-08-05T10:38:51;1.12;;;0.55;;
41456;SDS011;27197;51.752;5.220;2022-08-05T10:41:31;2.65;;;0.70;;
41456;SDS011;27197;51.752;5.220;2022-08-05T10:44:08;0.90;;;0.45;;
41456;SDS011;27197;51.752;5.220;2022-08-05T10:46:44;2.00;;;0.60;;
41456;SDS011;27197;51.752;5.220;2022-08-05T10:49:18;1.52;;;0.60;;
41456;SDS011;27197;51.752;5.220;2022-08-05T10:51:52;1.60;;;0.70;;
41456;SDS011;27197;51.752;5.220;2022-08-05T10:54:46;1.02;;;0.65;;
41456;SDS011;27197;51.752;5.220;2022-08-05T10:57:27;1.17;;;0.50;;
41456;SDS011;27197;51.752;5.220;2022-08-05T11:05:37;2.62;;;0.62;;
41456;SDS011;27197;51.752;5.220;2022-08-05T11:08:10;2.25;;;0.70;;
41456;SDS011;27197;51.752;5.220;2022-08-05T11:10:40;0.85;;;0.70;;
41456;SDS011;27197;51.752;5.220;2022-08-05T11:13:09;1.10;;;0.70;;
41456;SDS011;27197;51.752;5.220;2022-08-05T11:15:41;1.65;;;0.70;;
41456;SDS011;27197;51.752;5.220;2022-08-05T11:18:28;1.25;;;0.60;;
41456;SDS011;27197;51.752;5.220;2022-08-05T11:20:58;1.52;;;0.70;;
41456;SDS011;27197;51.752;5.220;2022-08-05T11:23:41;1.35;;;0.70;;
41456;SDS011;27197;51.752;5.220;2022-08-05T11:28:50;1.07;;;0.70;;
41456;SDS011;27197;51.752;5.220;2022-08-05T11:31:23;1.15;;;0.60;;
41456;SDS011;27197;51.752;5.220;2022-08-05T11:33:57;3.22;;;0.90;;
41456;SDS011;27197;51.752;5.220;2022-08-05T11:36:43;1.22;;;0.78;;
41456;SDS011;27197;51.752;5.220;2022-08-05T11:39:18;2.25;;;0.62;;
41456;SDS011;27197;51.752;5.220;2022-08-05T11:41:51;1.25;;;0.60;;
41456;SDS011;27197;51.752;5.220;2022-08-05T11:44:21;1.55;;;0.70;;
41456;SDS011;27197;51.752;5.220;2022-08-05T11:46:55;2.15;;;0.60;;
41456;SDS011;27197;51.752;5.220;2022-08-05T11:49:25;1.30;;;0.60;;
41456;SDS011;27197;51.752;5.220;2022-08-05T11:51:57;2.65;;;0.85;;
41456;SDS011;27197;51.752;5.220;2022-08-05T11:54:30;1.65;;;0.65;;
41456;SDS011;27197;51.752;5.220;2022-08-05T11:57:02;1.30;;;0.70;;
41456;SDS011;27197;51.752;5.220;2022-08-05T11:59:34;1.98;;;0.50;;
41456;SDS011;27197;51.752;5.220;2022-08-05T12:02:05;1.72;;;0.70;;
41456;SDS011;27197;51.752;5.220;2022-08-05T12:04:44;2.22;;;0.60;;
41456;SDS011;27197;51.752;5.220;2022-08-05T12:07:15;1.27;;;0.60;;
41456;SDS011;27197;51.752;5.220;2022-08-05T12:09:51;2.77;;;0.70;;
41456;SDS011;27197;51.752;5.220;2022-08-05T12:12:26;1.42;;;0.62;;
41456;SDS011;27197;51.752;5.220;2022-08-05T12:14:58;3.17;;;0.68;;
41456;SDS011;27197;51.752;5.220;2022-08-05T12:17:29;0.90;;;0.60;;
41456;SDS011;27197;51.752;5.220;2022-08-05T12:20:03;2.85;;;0.55;;
41456;SDS011;27197;51.752;5.220;2022-08-05T12:22:38;1.42;;;0.50;;
41456;SDS011;27197;51.752;5.220;2022-08-05T12:25:12;1.00;;;0.45;;
41456;SDS011;27197;51.752;5.220;2022-08-05T12:27:45;2.33;;;0.85;;
41456;SDS011;27197;51.752;5.220;2022-08-05T12:30:15;1.55;;;0.57;;
41456;SDS011;27197;51.752;5.220;2022-08-05T12:32:47;1.32;;;0.50;;
41456;SDS011;27197;51.752;5.220;2022-08-05T12:35:20;1.02;;;0.47;;
41456;SDS011;27197;51.752;5.220;2022-08-05T12:37:49;1.65;;;0.60;;
41456;SDS011;27197;51.752;5.220;2022-08-05T12:40:21;1.25;;;0.60;;
41456;SDS011;27197;51.752;5.220;2022-08-05T12:42:54;2.77;;;0.65;;
41456;SDS011;27197;51.752;5.220;2022-08-05T12:45:23;2.58;;;0.57;;
41456;SDS011;27197;51.752;5.220;2022-08-05T12:47:51;1.77;;;0.57;;
41456;SDS011;27197;51.752;5.220;2022-08-05T12:50:27;0.98;;;0.50;;
41456;SDS011;27197;51.752;5.220;2022-08-05T12:53:00;1.27;;;0.60;;
41456;SDS011;27197;51.752;5.220;2022-08-05T12:55:30;3.22;;;1.10;;
41456;SDS011;27197;51.752;5.220;2022-08-05T12:58:01;2.95;;;0.78;;
41456;SDS011;27197;51.752;5.220;2022-08-05T13:00:30;2.67;;;0.60;;
41456;SDS011;27197;51.752;5.220;2022-08-05T13:03:02;1.27;;;0.57;;
41456;SDS011;27197;51.752;5.220;2022-08-05T13:05:35;3.62;;;0.68;;
41456;SDS011;27197;51.752;5.220;2022-08-05T13:08:10;1.92;;;0.70;;
41456;SDS011;27197;51.752;5.220;2022-08-05T13:10:44;1.98;;;0.65;;
41456;SDS011;27197;51.752;5.220;2022-08-05T13:13:18;1.50;;;0.60;;
41456;SDS011;27197;51.752;5.220;2022-08-05T13:15:48;1.40;;;0.62;;
41456;SDS011;27197;51.752;5.220;2022-08-05T13:18:19;4.40;;;0.60;;
41456;SDS011;27197;51.752;5.220;2022-08-05T13:20:52;1.17;;;0.45;;
41456;SDS011;27197;51.752;5.220;2022-08-05T13:23:26;1.80;;;0.55;;
41456;SDS011;27197;51.752;5.220;2022-08-05T13:25:59;2.05;;;0.62;;
41456;SDS011;27197;51.752;5.220;2022-08-05T13:28:30;1.22;;;0.37;;
41456;SDS011;27197;51.752;5.220;2022-08-05T13:31:00;2.35;;;0.70;;
41456;SDS011;27197;51.752;5.220;2022-08-05T13:33:35;1.42;;;0.53;;
41456;SDS011;27197;51.752;5.220;2022-08-05T13:36:05;0.60;;;0.50;;
41456;SDS011;27197;51.752;5.220;2022-08-05T13:38:38;0.68;;;0.50;;
41456;SDS011;27197;51.752;5.220;2022-08-05T13:41:08;0.62;;;0.50;;
41456;SDS011;27197;51.752;5.220;2022-08-05T13:43:40;2.27;;;0.50;;
41456;SDS011;27197;51.752;5.220;2022-08-05T13:46:14;1.50;;;0.60;;
41456;SDS011;27197;51.752;5.220;2022-08-05T13:48:46;1.92;;;0.50;;
41456;SDS011;27197;51.752;5.220;2022-08-05T13:51:24;0.42;;;0.40;;
41456;SDS011;27197;51.752;5.220;2022-08-05T13:53:56;1.37;;;0.60;;
41456;SDS011;27197;51.752;5.220;2022-08-05T13:56:27;1.87;;;0.60;;
41456;SDS011;27197;51.752;5.220;2022-08-05T13:58:56;1.37;;;0.57;;
41456;SDS011;27197;51.752;5.220;2022-08-05T14:01:27;1.67;;;0.60;;
41456;SDS011;27197;51.752;5.220;2022-08-05T14:04:04;2.17;;;0.60;;
41456;SDS011;27197;51.752;5.220;2022-08-05T14:06:51;1.02;;;0.50;;
41456;SDS011;27197;51.752;5.220;2022-08-05T14:09:24;1.02;;;0.40;;
41456;SDS011;27197;51.752;5.220;2022-08-05T14:11:54;1.35;;;0.53;;
41456;SDS011;27197;51.752;5.220;2022-08-05T14:14:24;1.47;;;0.50;;
41456;SDS011;27197;51.752;5.220;2022-08-05T14:16:57;1.00;;;0.70;;
41456;SDS011;27197;51.752;5.220;2022-08-05T14:19:27;1.90;;;0.60;;
41456;SDS011;27197;51.752;5.220;2022-08-05T14:21:58;1.85;;;0.70;;
41456;SDS011;27197;51.752;5.220;2022-08-05T14:24:28;2.12;;;0.70;;
41456;SDS011;27197;51.752;5.220;2022-08-05T14:27:03;2.47;;;0.55;;
41456;SDS011;27197;51.752;5.220;2022-08-05T14:29:36;4.58;;;1.20;;
41456;SDS011;27197;51.752;5.220;2022-08-05T14:32:07;7.70;;;1.45;;
41456;SDS011;27197;51.752;5.220;2022-08-05T14:34:42;6.10;;;1.62;;
41456;SDS011;27197;51.752;5.220;2022-08-05T14:37:17;6.00;;;1.70;;
41456;SDS011;27197;51.752;5.220;2022-08-05T14:39:49;6.08;;;2.00;;
41456;SDS011;27197;51.752;5.220;2022-08-05T14:42:18;7.35;;;1.30;;
41456;SDS011;27197;51.752;5.220;2022-08-05T14:44:47;5.40;;;1.40;;
41456;SDS011;27197;51.752;5.220;2022-08-05T14:47:20;7.58;;;0.93;;
41456;SDS011;27197;51.752;5.220;2022-08-05T14:49:51;5.65;;;1.02;;
41456;SDS011;27197;51.752;5.220;2022-08-05T14:52:21;5.20;;;1.25;;
41456;SDS011;27197;51.752;5.220;2022-08-05T14:54:51;3.15;;;0.95;;
41456;SDS011;27197;51.752;5.220;2022-08-05T14:57:20;6.47;;;1.15;;
41456;SDS011;27197;51.752;5.220;2022-08-05T14:59:52;3.52;;;1.00;;
41456;SDS011;27197;51.752;5.220;2022-08-05T15:02:22;4.95;;;1.20;;
41456;SDS011;27197;51.752;5.220;2022-08-05T15:04:53;1.98;;;1.15;;
41456;SDS011;27197;51.752;5.220;2022-08-05T15:07:24;4.95;;;0.90;;
41456;SDS011;27197;51.752;5.220;2022-08-05T15:09:59;7.35;;;1.98;;
41456;SDS011;27197;51.752;5.220;2022-08-05T15:12:28;2.65;;;0.82;;
41456;SDS011;27197;51.752;5.220;2022-08-05T15:14:57;4.08;;;1.17;;
41456;SDS011;27197;51.752;5.220;2022-08-05T15:17:29;2.35;;;0.70;;
41456;SDS011;27197;51.752;5.220;2022-08-05T15:19:59;3.17;;;1.10;;
41456;SDS011;27197;51.752;5.220;2022-08-05T15:22:30;3.80;;;0.70;;
41456;SDS011;27197;51.752;5.220;2022-08-05T15:25:00;3.55;;;0.70;;
41456;SDS011;27197;51.752;5.220;2022-08-05T15:27:31;1.80;;;0.70;;
41456;SDS011;27197;51.752;5.220;2022-08-05T15:30:03;2.58;;;0.60;;
41456;SDS011;27197;51.752;5.220;2022-08-05T15:32:34;2.40;;;0.80;;
41456;SDS011;27197;51.752;5.220;2022-08-05T15:35:05;1.57;;;0.70;;
41456;SDS011;27197;51.752;5.220;2022-08-05T15:37:41;4.12;;;0.88;;
41456;SDS011;27197;51.752;5.220;2022-08-05T15:40:11;2.33;;;0.62;;
41456;SDS011;27197;51.752;5.220;2022-08-05T15:42:43;1.70;;;0.60;;
41456;SDS011;27197;51.752;5.220;2022-08-05T15:45:14;1.85;;;0.75;;
41456;SDS011;27197;51.752;5.220;2022-08-05T15:47:44;4.75;;;0.60;;
41456;SDS011;27197;51.752;5.220;2022-08-05T15:50:15;4.17;;;0.62;;
41456;SDS011;27197;51.752;5.220;2022-08-05T15:52:46;1.87;;;0.88;;
41456;SDS011;27197;51.752;5.220;2022-08-05T15:55:16;2.05;;;0.98;;